White Mountain, California
Current Conditions -  °F | °C
As of 12:56 PM on Thursday 18 Dec 2014 (Local Time) from KBIH Reporting Station
Clear Clear  
Wind Chill: 49°   Ceiling: Unl
Heat Index: 49°   Visibility: 10mi
Dew Point: 30°   Wind: 3mph
Humidity: 48%   Direction: 300°WNW
Pressure: 30.13"   Gusts: NA
Location:  37.5°N, 118.18°W
Report Text: KBIH 182056Z AUTO 30003KT 10SM CLR 09/M01 A3013 RMK AO2 SLP200 T00941011 56017
Loading
Personal Weather Stations






























Interactive Weather Map New forecast layout! Learn more

10-Day Weather Forecast

Advertisements
Track Severe Weather on mobile